createdAt,value
2023-04-09T00:01:10.375Z,6.34
2023-04-09T00:03:37.950Z,6.37
2023-04-09T00:06:05.503Z,6.39
2023-04-09T00:08:32.146Z,6.39
2023-04-09T00:10:59.783Z,6.40
2023-04-09T00:13:38.576Z,6.40
2023-04-09T00:16:07.507Z,6.41
2023-04-09T00:18:34.315Z,6.39
2023-04-09T00:21:00.982Z,6.39
2023-04-09T00:23:27.735Z,6.36
2023-04-09T00:25:54.334Z,6.37
2023-04-09T00:28:20.954Z,6.34
2023-04-09T00:30:47.534Z,6.34
2023-04-09T00:33:14.159Z,6.37
2023-04-09T00:35:40.869Z,6.37
2023-04-09T00:38:07.711Z,6.37
2023-04-09T00:40:34.312Z,6.39
2023-04-09T00:43:00.916Z,6.39
2023-04-09T00:45:27.730Z,6.40
2023-04-09T00:47:54.577Z,6.40
2023-04-09T00:50:21.650Z,6.41
2023-04-09T00:52:48.433Z,6.41
2023-04-09T00:55:15.335Z,6.41
2023-04-09T00:57:41.974Z,6.42
2023-04-09T01:00:09.272Z,6.43
2023-04-09T01:02:36.126Z,6.42
2023-04-09T01:05:03.473Z,6.45
2023-04-09T01:07:38.139Z,6.44
2023-04-09T01:10:22.493Z,6.45
2023-04-09T01:13:09.041Z,6.42
2023-04-09T01:15:46.873Z,6.42
2023-04-09T01:18:20.890Z,6.42
2023-04-09T01:21:07.150Z,6.40
2023-04-09T01:23:55.278Z,6.39
2023-04-09T01:26:56.475Z,6.38
2023-04-09T01:29:30.489Z,6.38
2023-04-09T01:31:59.448Z,6.39
2023-04-09T01:34:28.672Z,6.40
2023-04-09T01:36:58.091Z,6.40
2023-04-09T01:39:26.250Z,6.41
2023-04-09T01:41:53.783Z,6.42
2023-04-09T01:44:21.253Z,6.44
2023-04-09T01:46:49.581Z,6.45
2023-04-09T01:49:18.064Z,6.45
2023-04-09T01:51:44.932Z,6.38
2023-04-09T01:54:11.589Z,6.43
2023-04-09T01:56:45.869Z,6.44
2023-04-09T01:59:13.402Z,6.43
2023-04-09T02:02:06.844Z,6.41
2023-04-09T02:04:37.013Z,6.40
2023-04-09T02:07:23.455Z,6.39
2023-04-09T02:09:53.248Z,6.39
2023-04-09T02:12:21.679Z,6.38
2023-04-09T02:14:51.905Z,6.39
2023-04-09T02:17:19.590Z,6.37
2023-04-09T02:19:47.759Z,6.37
2023-04-09T02:22:15.180Z,6.32
2023-04-09T02:24:41.912Z,6.37
2023-04-09T02:27:08.889Z,6.37
2023-04-09T02:29:35.579Z,6.37
2023-04-09T02:32:02.317Z,6.36
2023-04-09T02:34:29.155Z,6.37
2023-04-09T02:36:55.862Z,6.36
2023-04-09T02:39:22.805Z,6.38
2023-04-09T02:41:49.434Z,6.39
2023-04-09T02:44:16.183Z,6.39
2023-04-09T02:46:45.064Z,6.37
2023-04-09T02:49:11.824Z,6.38
2023-04-09T02:51:38.589Z,6.36
2023-04-09T02:54:05.340Z,6.36
2023-04-09T02:56:32.094Z,6.34
2023-04-09T02:58:58.730Z,6.34
2023-04-09T03:01:25.411Z,6.38
2023-04-09T03:03:52.689Z,6.40
2023-04-09T03:06:19.379Z,6.37
2023-04-09T03:08:45.995Z,6.34
2023-04-09T03:11:12.676Z,6.32
2023-04-09T03:13:39.275Z,6.29
2023-04-09T03:16:06.345Z,6.28
2023-04-09T03:18:33.029Z,6.26
2023-04-09T03:20:59.738Z,6.25
2023-04-09T03:23:28.584Z,6.22
2023-04-09T03:26:05.853Z,6.18
2023-04-09T03:28:40.130Z,6.15
2023-04-09T03:31:07.332Z,6.09
2023-04-09T03:33:37.514Z,6.04
2023-04-09T03:36:04.512Z,5.97
2023-04-09T03:38:51.396Z,5.91
2023-04-09T03:41:27.445Z,5.86
2023-04-09T03:43:56.242Z,5.81
2023-04-09T03:46:26.696Z,5.77
2023-04-09T03:48:54.755Z,5.72
2023-04-09T03:51:24.335Z,5.69
2023-04-09T03:53:55.931Z,5.67
2023-04-09T03:56:22.828Z,5.64
2023-04-09T03:58:49.589Z,5.61
2023-04-09T04:01:17.321Z,5.58
2023-04-09T04:03:53.624Z,5.58
2023-04-09T04:06:25.527Z,5.57
2023-04-09T04:09:09.947Z,5.57
2023-04-09T04:11:48.834Z,5.56
2023-04-09T04:14:17.124Z,5.57
2023-04-09T04:16:47.469Z,5.58
2023-04-09T04:19:18.298Z,5.59
2023-04-09T04:21:48.008Z,5.60
2023-04-09T04:24:15.503Z,5.61
2023-04-09T04:26:42.162Z,5.63
2023-04-09T04:29:11.535Z,5.66
2023-04-09T04:31:50.617Z,5.69
2023-04-09T04:34:20.470Z,5.72
2023-04-09T04:36:54.121Z,5.74
2023-04-09T04:39:21.042Z,5.75
2023-04-09T04:41:55.566Z,5.78
2023-04-09T04:44:25.497Z,5.81
2023-04-09T04:46:59.114Z,5.85
2023-04-09T04:49:26.197Z,5.86
2023-04-09T04:51:52.807Z,5.88
2023-04-09T04:54:19.438Z,5.88
2023-04-09T04:56:51.160Z,5.89
2023-04-09T04:59:39.396Z,5.87
2023-04-09T05:02:08.914Z,5.86
2023-04-09T05:04:46.135Z,5.85
2023-04-09T05:07:15.918Z,5.85
2023-04-09T05:09:49.452Z,5.83
2023-04-09T05:12:15.989Z,5.80
2023-04-09T05:14:42.699Z,5.80
2023-04-09T05:17:09.329Z,5.80
2023-04-09T05:19:44.505Z,5.78
2023-04-09T05:22:12.445Z,5.72
2023-04-09T05:24:39.343Z,5.79
2023-04-09T05:27:06.255Z,5.82
2023-04-09T05:29:33.081Z,5.85
2023-04-09T05:32:00.234Z,5.88
2023-04-09T05:34:34.675Z,5.90
2023-04-09T05:37:01.358Z,5.92
2023-04-09T05:39:28.026Z,5.95
2023-04-09T05:41:55.588Z,5.97
2023-04-09T05:44:22.132Z,6.01
2023-04-09T05:46:51.084Z,6.03
2023-04-09T05:49:22.478Z,6.06
2023-04-09T05:51:52.484Z,6.08
2023-04-09T05:54:25.081Z,6.12
2023-04-09T05:56:51.824Z,6.14
2023-04-09T05:59:18.719Z,6.17
2023-04-09T06:01:45.349Z,6.18
2023-04-09T06:04:12.282Z,6.22
2023-04-09T06:06:39.404Z,6.24
2023-04-09T06:09:06.038Z,6.30
2023-04-09T06:11:32.696Z,6.37
2023-04-09T06:14:00.380Z,6.42
2023-04-09T06:16:26.991Z,6.48
2023-04-09T06:18:53.563Z,6.52
2023-04-09T06:21:20.535Z,6.57
2023-04-09T06:23:47.082Z,6.62
2023-04-09T06:26:13.680Z,6.67
2023-04-09T06:28:40.243Z,6.73
2023-04-09T06:31:06.926Z,6.79
2023-04-09T06:33:33.548Z,6.83
2023-04-09T06:36:00.244Z,6.87
2023-04-09T06:38:26.942Z,6.94
2023-04-09T06:40:53.510Z,6.98
2023-04-09T06:43:20.121Z,7.06
2023-04-09T06:45:51.327Z,7.13
2023-04-09T06:48:18.047Z,7.19
2023-04-09T06:50:45.183Z,7.25
2023-04-09T06:53:12.001Z,7.31
2023-04-09T06:55:38.585Z,7.36
2023-04-09T06:58:05.160Z,7.44
2023-04-09T07:00:31.773Z,7.47
2023-04-09T07:02:58.603Z,7.48
2023-04-09T07:05:25.383Z,7.49
2023-04-09T07:07:51.944Z,7.50
2023-04-09T07:10:18.585Z,7.52
2023-04-09T07:12:45.229Z,7.54
2023-04-09T07:15:11.891Z,7.58
2023-04-09T07:17:38.596Z,7.62
2023-04-09T07:20:05.833Z,7.70
2023-04-09T07:22:32.468Z,7.78
2023-04-09T07:24:59.099Z,7.87
2023-04-09T07:27:27.590Z,7.97
2023-04-09T07:29:58.183Z,8.05
2023-04-09T07:32:25.928Z,8.15
2023-04-09T07:34:53.335Z,8.25
2023-04-09T07:37:20.171Z,8.35
2023-04-09T07:39:47.539Z,8.48
2023-04-09T07:42:14.517Z,8.56
2023-04-09T07:44:41.171Z,8.65
2023-04-09T07:47:08.833Z,8.73
2023-04-09T07:49:36.967Z,8.81
2023-04-09T07:52:04.713Z,8.85
2023-04-09T07:54:31.636Z,8.92
2023-04-09T07:56:58.774Z,8.99
2023-04-09T07:59:25.425Z,9.03
2023-04-09T08:01:52.132Z,9.07
2023-04-09T08:04:18.967Z,9.10
2023-04-09T08:06:45.744Z,9.10
2023-04-09T08:09:12.365Z,9.14
2023-04-09T08:11:38.936Z,9.19
2023-04-09T08:14:05.513Z,9.25
2023-04-09T08:16:32.102Z,9.31
2023-04-09T08:18:58.682Z,9.39
2023-04-09T08:21:25.323Z,9.45
2023-04-09T08:23:51.969Z,9.52
2023-04-09T08:26:18.673Z,9.61
2023-04-09T08:28:45.244Z,9.70
2023-04-09T08:31:11.800Z,9.80
2023-04-09T08:33:38.453Z,9.90
2023-04-09T08:36:09.035Z,10.01
2023-04-09T08:38:35.681Z,10.15
2023-04-09T08:41:02.448Z,10.28
2023-04-09T08:43:47.227Z,10.40
2023-04-09T08:46:17.512Z,10.55
2023-04-09T08:48:45.857Z,10.77
2023-04-09T08:51:20.216Z,10.86
2023-04-09T08:53:48.242Z,10.96
2023-04-09T08:56:14.926Z,11.06
2023-04-09T08:58:45.332Z,11.11
2023-04-09T09:01:27.004Z,11.13
2023-04-09T09:03:54.895Z,11.17
2023-04-09T09:06:22.750Z,11.29
2023-04-09T09:09:06.672Z,11.37
2023-04-09T09:11:35.572Z,11.47
2023-04-09T09:14:04.713Z,11.59
2023-04-09T09:16:31.811Z,11.77
2023-04-09T09:18:59.439Z,11.87
2023-04-09T09:21:27.508Z,11.90
2023-04-09T09:23:54.728Z,11.96
2023-04-09T09:26:23.792Z,12.12
2023-04-09T09:28:51.599Z,12.16
2023-04-09T09:31:20.396Z,12.20
2023-04-09T09:33:48.208Z,12.24
2023-04-09T09:36:15.680Z,12.29
2023-04-09T09:38:53.756Z,12.38
2023-04-09T09:41:21.363Z,12.42
2023-04-09T09:43:48.160Z,12.45
2023-04-09T09:46:16.381Z,12.54
2023-04-09T09:48:43.178Z,12.49
2023-04-09T09:51:11.602Z,12.59
2023-04-09T09:53:42.352Z,12.70
2023-04-09T09:56:15.802Z,12.71
2023-04-09T09:58:48.927Z,12.69
2023-04-09T10:01:17.709Z,12.77
2023-04-09T10:03:45.877Z,12.77
2023-04-09T10:06:13.314Z,12.73
2023-04-09T10:08:42.124Z,12.90
2023-04-09T10:11:08.958Z,12.97
2023-04-09T10:13:39.499Z,13.00
2023-04-09T10:16:07.380Z,13.07
2023-04-09T10:18:34.737Z,13.13
2023-04-09T10:21:17.505Z,13.23
2023-04-09T10:23:48.301Z,13.36
2023-04-09T10:26:14.988Z,13.45
2023-04-09T10:28:43.156Z,13.51
2023-04-09T10:31:09.935Z,13.54
2023-04-09T10:33:38.177Z,13.53
2023-04-09T10:36:11.628Z,13.58
2023-04-09T10:38:46.392Z,13.62
2023-04-09T10:41:22.330Z,13.63
2023-04-09T10:43:49.155Z,13.71
2023-04-09T10:46:31.644Z,13.69
2023-04-09T10:49:21.720Z,13.57
2023-04-09T10:51:52.208Z,13.52
2023-04-09T10:54:33.948Z,13.40
2023-04-09T10:57:22.328Z,13.26
2023-04-09T10:59:54.315Z,13.13
2023-04-09T11:02:26.697Z,12.99
2023-04-09T11:05:17.689Z,12.92
2023-04-09T11:07:47.479Z,12.90
2023-04-09T11:10:14.153Z,12.84
2023-04-09T11:12:40.802Z,12.93
2023-04-09T11:15:16.315Z,12.95
2023-04-09T11:17:43.420Z,12.89
2023-04-09T11:20:11.084Z,12.81
2023-04-09T11:22:38.651Z,12.69
2023-04-09T11:25:05.802Z,12.62
2023-04-09T11:27:37.535Z,12.60
2023-04-09T11:30:04.730Z,12.52
2023-04-09T11:32:31.642Z,12.50
2023-04-09T11:34:58.203Z,12.49
2023-04-09T11:37:24.838Z,12.51
2023-04-09T11:39:51.712Z,12.59
2023-04-09T11:42:18.320Z,12.69
2023-04-09T11:44:45.485Z,12.77
2023-04-09T11:47:13.701Z,12.81
2023-04-09T11:49:40.739Z,12.78
2023-04-09T11:52:07.454Z,12.91
2023-04-09T11:54:34.733Z,12.96
2023-04-09T11:57:03.922Z,12.94
2023-04-09T11:59:31.057Z,12.96
2023-04-09T12:01:58.576Z,13.00
2023-04-09T12:04:25.434Z,13.00
2023-04-09T12:06:57.060Z,13.03
2023-04-09T12:09:23.628Z,13.10
2023-04-09T12:11:50.356Z,13.19
2023-04-09T12:14:18.423Z,13.24
2023-04-09T12:16:45.207Z,13.29
2023-04-09T12:19:13.340Z,13.54
2023-04-09T12:21:49.042Z,13.58
2023-04-09T12:24:19.597Z,13.67
2023-04-09T12:26:47.191Z,13.70
2023-04-09T12:29:19.492Z,13.71
2023-04-09T12:31:47.162Z,13.79
2023-04-09T12:34:14.076Z,13.93
2023-04-09T12:36:41.350Z,14.05
2023-04-09T12:39:09.594Z,14.13
2023-04-09T12:41:36.188Z,14.19
2023-04-09T12:44:02.862Z,14.25
2023-04-09T12:46:29.611Z,14.31
2023-04-09T12:48:56.209Z,14.36
2023-04-09T12:51:22.824Z,14.36
2023-04-09T12:53:49.495Z,14.34
2023-04-09T12:56:16.169Z,14.31
2023-04-09T12:58:42.830Z,14.23
2023-04-09T13:01:09.540Z,14.10
2023-04-09T13:03:36.450Z,13.99
2023-04-09T13:06:03.401Z,13.86
2023-04-09T13:08:29.970Z,13.72
2023-04-09T13:10:56.656Z,13.74
2023-04-09T13:13:23.317Z,13.58
2023-04-09T13:15:50.038Z,13.44
2023-04-09T13:18:16.660Z,13.37
2023-04-09T13:20:43.341Z,13.26
2023-04-09T13:23:09.959Z,13.23
2023-04-09T13:25:36.636Z,13.17
2023-04-09T13:28:03.249Z,13.14
2023-04-09T13:30:30.020Z,13.16
2023-04-09T13:32:56.746Z,13.17
2023-04-09T13:35:23.656Z,13.17
2023-04-09T13:37:50.471Z,13.19
2023-04-09T13:40:17.159Z,13.27
2023-04-09T13:42:43.800Z,13.38
2023-04-09T13:45:10.463Z,13.47
2023-04-09T13:47:37.132Z,13.57
2023-04-09T13:50:04.267Z,13.73
2023-04-09T13:52:32.137Z,14.07
2023-04-09T13:54:58.759Z,14.16
2023-04-09T13:57:25.306Z,14.18
2023-04-09T13:59:51.939Z,14.15
2023-04-09T14:02:18.700Z,14.07
2023-04-09T14:04:45.875Z,14.09
2023-04-09T14:07:12.500Z,14.13
2023-04-09T14:09:39.122Z,14.11
2023-04-09T14:12:05.767Z,14.04
2023-04-09T14:14:32.334Z,13.95
2023-04-09T14:16:58.978Z,13.85
2023-04-09T14:19:25.565Z,13.72
2023-04-09T14:21:52.523Z,13.64
2023-04-09T14:24:19.082Z,13.54
2023-04-09T14:26:45.675Z,13.43
2023-04-09T14:29:12.276Z,13.35
2023-04-09T14:31:39.269Z,13.29
2023-04-09T14:34:05.981Z,13.24
2023-04-09T14:36:32.552Z,13.25
2023-04-09T14:38:59.362Z,13.27
2023-04-09T14:41:26.330Z,13.25
2023-04-09T14:43:52.904Z,13.27
2023-04-09T14:46:19.531Z,13.38
2023-04-09T14:48:46.215Z,13.54
2023-04-09T14:51:12.940Z,13.76
2023-04-09T14:53:39.531Z,14.02
2023-04-09T14:56:06.607Z,14.28
2023-04-09T14:58:33.203Z,14.38
2023-04-09T15:00:59.847Z,14.49
2023-04-09T15:03:26.614Z,14.52
2023-04-09T15:05:53.444Z,14.48
2023-04-09T15:08:20.056Z,14.46
2023-04-09T15:10:46.619Z,14.40
2023-04-09T15:13:13.169Z,14.29
2023-04-09T15:15:43.042Z,14.18
2023-04-09T15:18:09.781Z,14.12
2023-04-09T15:20:37.776Z,14.07
2023-04-09T15:23:04.505Z,14.04
2023-04-09T15:25:31.359Z,14.04
2023-04-09T15:27:58.239Z,14.19
2023-04-09T15:30:25.034Z,14.34
2023-04-09T15:32:51.722Z,14.59
2023-04-09T15:35:18.545Z,14.83
2023-04-09T15:37:51.255Z,15.00
2023-04-09T15:40:18.973Z,15.22
2023-04-09T15:42:45.551Z,15.41
2023-04-09T15:45:21.806Z,15.75
2023-04-09T15:47:48.407Z,15.97
2023-04-09T15:50:15.067Z,16.17
2023-04-09T15:52:41.918Z,16.39
2023-04-09T15:55:09.265Z,16.48
2023-04-09T15:57:36.095Z,16.49
2023-04-09T16:00:02.809Z,16.47
2023-04-09T16:02:31.397Z,16.36
2023-04-09T16:04:58.184Z,16.15
2023-04-09T16:07:24.789Z,15.88
2023-04-09T16:09:51.437Z,15.64
2023-04-09T16:12:18.206Z,15.34
2023-04-09T16:14:44.813Z,15.08
2023-04-09T16:17:11.597Z,14.82
2023-04-09T16:19:38.582Z,14.59
2023-04-09T16:22:05.174Z,14.36
2023-04-09T16:24:31.734Z,14.14
2023-04-09T16:26:58.391Z,13.93
2023-04-09T16:29:24.983Z,13.78
2023-04-09T16:31:51.586Z,13.70
2023-04-09T16:34:18.251Z,13.80
2023-04-09T16:36:45.017Z,14.06
2023-04-09T16:39:11.832Z,14.36
2023-04-09T16:41:38.570Z,14.72
2023-04-09T16:44:05.374Z,15.08
2023-04-09T16:46:32.111Z,15.40
2023-04-09T16:48:58.761Z,15.74
2023-04-09T16:51:25.456Z,16.09
2023-04-09T16:53:52.072Z,16.40
2023-04-09T16:56:18.873Z,16.54
2023-04-09T16:58:45.831Z,16.72
2023-04-09T17:01:12.503Z,16.86
2023-04-09T17:03:39.411Z,16.91
2023-04-09T17:06:06.367Z,16.96
2023-04-09T17:08:33.022Z,16.99
2023-04-09T17:10:59.647Z,17.00
2023-04-09T17:13:26.219Z,16.99
2023-04-09T17:15:52.787Z,16.96
2023-04-09T17:18:19.337Z,16.92
2023-04-09T17:20:45.911Z,16.86
2023-04-09T17:23:12.575Z,16.80
2023-04-09T17:25:39.167Z,16.71
2023-04-09T17:28:05.784Z,16.56
2023-04-09T17:30:32.928Z,16.42
2023-04-09T17:32:59.910Z,16.25
2023-04-09T17:35:26.671Z,16.05
2023-04-09T17:37:53.359Z,15.82
2023-04-09T17:40:19.988Z,15.53
2023-04-09T17:42:46.547Z,15.23
2023-04-09T17:45:13.207Z,14.87
2023-04-09T17:47:39.852Z,14.56
2023-04-09T17:50:07.671Z,14.21
2023-04-09T17:52:34.641Z,13.87
2023-04-09T17:55:01.213Z,13.55
2023-04-09T17:57:27.813Z,13.24
2023-04-09T17:59:54.358Z,12.95
2023-04-09T18:02:21.151Z,12.66
2023-04-09T18:04:48.236Z,12.42
2023-04-09T18:07:14.963Z,12.15
2023-04-09T18:09:41.532Z,11.94
2023-04-09T18:12:08.167Z,11.73
2023-04-09T18:14:34.732Z,11.51
2023-04-09T18:17:01.430Z,11.33
2023-04-09T18:19:28.054Z,11.15
2023-04-09T18:21:54.685Z,10.99
2023-04-09T18:24:21.294Z,10.83
2023-04-09T18:26:47.871Z,10.67
2023-04-09T18:29:14.693Z,10.51
2023-04-09T18:31:41.333Z,10.34
2023-04-09T18:34:08.011Z,10.20
2023-04-09T18:36:34.727Z,10.04
2023-04-09T18:39:01.496Z,9.92
2023-04-09T18:41:28.129Z,9.79
2023-04-09T18:43:55.071Z,9.69
2023-04-09T18:46:21.746Z,9.57
2023-04-09T18:48:48.484Z,9.48
2023-04-09T18:51:15.088Z,9.39
2023-04-09T18:53:42.111Z,9.29
2023-04-09T18:56:09.124Z,9.20
2023-04-09T18:58:36.312Z,9.13
2023-04-09T19:01:12.433Z,9.05
2023-04-09T19:03:40.315Z,8.99
2023-04-09T19:06:14.156Z,8.85
2023-04-09T19:08:41.187Z,8.84
2023-04-09T19:11:08.048Z,8.76
2023-04-09T19:13:35.417Z,8.70
2023-04-09T19:16:02.321Z,8.62
2023-04-09T19:18:29.514Z,8.57
2023-04-09T19:20:56.118Z,8.50
2023-04-09T19:23:22.714Z,8.44
2023-04-09T19:25:53.528Z,8.36
2023-04-09T19:28:20.116Z,8.29
2023-04-09T19:30:46.861Z,8.25
2023-04-09T19:33:13.527Z,8.19
2023-04-09T19:35:40.172Z,8.13
2023-04-09T19:38:07.685Z,8.09
2023-04-09T19:40:34.307Z,8.05
2023-04-09T19:43:00.989Z,7.99
2023-04-09T19:45:28.158Z,7.95
2023-04-09T19:47:55.933Z,7.93
2023-04-09T19:50:23.008Z,7.90
2023-04-09T19:52:49.724Z,7.88
2023-04-09T19:55:16.298Z,7.86
2023-04-09T19:57:42.962Z,7.84
2023-04-09T20:00:10.078Z,7.82
2023-04-09T20:02:40.320Z,7.80
2023-04-09T20:05:08.517Z,7.76
2023-04-09T20:07:35.017Z,7.68
2023-04-09T20:10:04.551Z,7.69
2023-04-09T20:12:31.198Z,7.67
2023-04-09T20:14:58.209Z,7.63
2023-04-09T20:17:25.181Z,7.59
2023-04-09T20:19:51.868Z,7.54
2023-04-09T20:22:18.494Z,7.49
2023-04-09T20:24:45.184Z,7.44
2023-04-09T20:27:11.728Z,7.38
2023-04-09T20:29:38.438Z,7.34
2023-04-09T20:32:05.376Z,7.31
2023-04-09T20:34:32.056Z,7.26
2023-04-09T20:36:58.880Z,7.22
2023-04-09T20:39:25.462Z,7.18
2023-04-09T20:41:52.508Z,7.14
2023-04-09T20:44:19.398Z,7.13
2023-04-09T20:46:46.057Z,7.12
2023-04-09T20:49:12.791Z,7.12
2023-04-09T20:51:39.475Z,7.12
2023-04-09T20:54:06.226Z,7.11
2023-04-09T20:56:32.902Z,7.11
2023-04-09T20:58:59.480Z,7.12
2023-04-09T21:01:26.212Z,7.12
2023-04-09T21:03:54.070Z,7.13
2023-04-09T21:06:20.914Z,7.14
2023-04-09T21:08:47.716Z,7.14
2023-04-09T21:11:14.320Z,7.15
2023-04-09T21:13:53.809Z,7.15
2023-04-09T21:16:21.885Z,7.16
2023-04-09T21:18:48.606Z,7.15
2023-04-09T21:21:15.213Z,7.11
2023-04-09T21:23:41.819Z,7.07
2023-04-09T21:26:08.429Z,7.03
2023-04-09T21:28:35.002Z,6.97
2023-04-09T21:31:01.681Z,6.93
2023-04-09T21:33:30.034Z,6.86
2023-04-09T21:35:57.234Z,6.81
2023-04-09T21:38:24.066Z,6.78
2023-04-09T21:40:50.865Z,6.72
2023-04-09T21:43:17.446Z,6.68
2023-04-09T21:45:44.263Z,6.62
2023-04-09T21:48:12.076Z,6.57
2023-04-09T21:50:38.806Z,6.49
2023-04-09T21:53:05.431Z,6.44
2023-04-09T21:55:32.064Z,6.40
2023-04-09T21:57:58.645Z,6.32
2023-04-09T22:00:25.258Z,6.27
2023-04-09T22:02:52.185Z,6.21
2023-04-09T22:05:19.374Z,6.16
2023-04-09T22:07:48.353Z,6.11
2023-04-09T22:10:15.175Z,6.09
2023-04-09T22:12:42.204Z,6.06
2023-04-09T22:15:09.507Z,6.03
2023-04-09T22:17:36.195Z,5.99
2023-04-09T22:20:02.937Z,5.95
2023-04-09T22:22:31.325Z,5.93
2023-04-09T22:24:58.116Z,5.91
2023-04-09T22:27:24.952Z,5.88
2023-04-09T22:29:51.841Z,5.86
2023-04-09T22:32:18.523Z,5.81
2023-04-09T22:34:45.537Z,5.79
2023-04-09T22:37:12.540Z,5.74
2023-04-09T22:39:39.395Z,5.72
2023-04-09T22:42:06.517Z,5.67
2023-04-09T22:44:33.097Z,5.63
2023-04-09T22:46:59.945Z,5.61
2023-04-09T22:49:26.909Z,5.58
2023-04-09T22:51:53.561Z,5.55
2023-04-09T22:54:20.522Z,5.53
2023-04-09T22:56:47.296Z,5.52
2023-04-09T22:59:14.198Z,5.51
2023-04-09T23:01:40.946Z,5.47
2023-04-09T23:04:07.711Z,5.45
2023-04-09T23:06:34.350Z,5.42
2023-04-09T23:09:01.087Z,5.39
2023-04-09T23:11:31.031Z,5.39
2023-04-09T23:13:57.826Z,5.37
2023-04-09T23:16:24.769Z,5.36
2023-04-09T23:18:51.752Z,5.34
2023-04-09T23:21:18.731Z,5.32
2023-04-09T23:23:45.697Z,5.31
2023-04-09T23:26:12.588Z,5.28
2023-04-09T23:28:39.575Z,5.26
2023-04-09T23:31:06.394Z,5.23
2023-04-09T23:33:33.083Z,5.22
2023-04-09T23:35:59.727Z,5.20
2023-04-09T23:38:26.534Z,5.19
2023-04-09T23:40:53.224Z,5.17
2023-04-09T23:43:19.828Z,5.16
2023-04-09T23:45:46.550Z,5.13
2023-04-09T23:48:13.150Z,5.11
2023-04-09T23:50:40.949Z,5.09
2023-04-09T23:53:08.112Z,5.05
2023-04-09T23:55:35.286Z,5.02
2023-04-09T23:58:02.020Z,5.00
